Latest Coastal Weather Observations for Cape Ferguson

IDQ60701

Issued at 6:42 am EST Monday 29 August 2016 (issued every 10 minutes, with the page automatically refreshed every 10 minutes)

About coastal observations | Map of coastal stations | Coastal observations for QLD | Marine services | Other Formats
Station Details ID: 032182 Name: CAPE FERGUSON NTC AWS Lat: -19.28 Lon: 147.06 Height: 0.0 m
Data from the previous 72 hours. | See also: Recent months for locations in Queensland
Date/Time
EST
Temp
°C
Wind Pressure Rain since
9am
mm
Weather Cloud Vis
km
Sea
Height
m
Swell
Dir  Spd
kts
Gust
kts
hPa Trend Height
m
Period
s
Dir
29/06:30am 17.6 WSW 4 7 1020.6 - - - - - - - - -
29/06:00am 17.6 W 5 8 1020.4 - - - - - - - - -
29/05:30am 17.4 SW 6 13 1020.4 - - - - - - - - -
29/05:00am 17.9 SSE 10 15 1020.2 - - - - - - - - -
29/04:30am 17.7 S 9 11 1020.1 - - - - - - - - -
29/04:00am 17.7 S 10 12 1019.8 - - - - - - - - -
29/03:30am 17.9 SSE 13 15 1019.9 - - - - - - - - -
29/03:00am 18.0 SSE 12 14 1019.8 - - - - - - - - -
29/02:30am 17.9 SSE 12 14 1019.9 - - - - - - - - -
29/02:00am 18.0 SSE 13 15 1020.1 - - - - - - - - -
29/01:30am 18.5 SSE 12 14 1020.3 - - - - - - - - -
29/01:00am 19.3 SE 12 14 1020.5 - - - - - - - - -
29/12:30am 20.8 ESE 13 16 1020.8 - - - - - - - - -
29/12:00am 20.8 ESE 13 15 1021.1 - - - - - - - - -
 
Date/Time
EST
Temp
°C
Wind Pressure Rain since
9am
mm
Weather Cloud Vis
km
Sea
Height
m
Swell
Dir  Spd
kts
Gust
kts
hPa Trend Height
m
Period
s
Dir
28/11:30pm 20.8 E 13 16 1021.1 - - - - - - - - -
28/11:00pm 20.8 E 14 18 1021.0 - - - - - - - - -
28/10:30pm 20.9 E 13 17 1020.8 - - - - - - - - -
28/10:00pm 20.9 ESE 13 17 1020.9 - - - - - - - - -
28/09:30pm 20.8 E 12 14 1021.2 - - - - - - - - -
28/09:00pm 20.8 E 12 16 1021.0 - - - - - - - - -
28/08:30pm 20.8 E 12 14 1021.0 - - - - - - - - -
28/08:00pm 20.6 E 10 12 1020.9 - - - - - - - - -
28/07:30pm 20.6 ESE 10 12 1020.6 - - - - - - - - -
28/07:00pm 20.6 E 10 13 1020.3 - - - - - - - - -
28/06:30pm 20.4 E 10 12 1019.9 - - - - - - - - -
28/06:00pm 20.4 E 10 13 1019.6 - - - - - - - - -
28/05:30pm 20.4 E 10 13 1019.4 - - - - - - - - -
28/05:00pm 20.2 E 10 13 1019.6 - - - - - - - - -
28/04:30pm 20.0 E 11 14 1019.6 - - - - - - - - -
28/04:00pm 20.0 E 10 13 1019.5 - - - - - - - - -
28/03:30pm 20.0 E 10 13 1019.4 - - - - - - - - -
28/03:00pm 19.7 E 9 12 1019.4 - - - - - - - - -
28/02:30pm 19.8 E 10 13 1019.7 - - - - - - - - -
28/02:00pm 19.7 E 10 14 1020.0 - - - - - - - - -
28/01:30pm 19.6 E 10 14 1020.4 - - - - - - - - -
28/01:00pm 19.6 E 10 12 1020.9 - - - - - - - - -
28/12:30pm 19.6 E 10 11 1021.4 - - - - - - - - -
28/12:00pm 19.7 ESE 9 12 1021.9 - - - - - - - - -
28/11:30am 19.6 SE 9 12 1022.3 - - - - - - - - -
28/11:00am 19.2 SE 9 12 1022.8 - - - - - - - - -
28/10:30am 18.9 SE 10 13 1023.3 - - - - - - - - -
28/10:00am 18.5 SE 10 13 1023.3 - - - - - - - - -
28/09:30am 18.1 SSE 11 13 1023.3 - - - - - - - - -
28/09:00am 18.1 SSE 11 14 1023.1 - - - - - - - - -
28/08:30am 17.9 SSE 10 13 1023.0 - - - - - - - - -
28/08:00am 17.8 SSE 10 13 1022.6 - - - - - - - - -
28/07:30am 17.8 SSE 10 13 1022.5 - - - - - - - - -
28/07:00am 17.5 SSE 9 12 1022.1 - - - - - - - - -
28/06:30am 17.3 S 7 9 1021.8 - - - - - - - - -
28/06:00am 16.8 SSW 5 10 1021.4 - - - - - - - - -
28/05:30am 16.6 S 8 11 1021.0 - - - - - - - - -
28/05:00am 16.8 S 9 12 1020.7 - - - - - - - - -
28/04:30am 17.1 SSE 11 13 1020.7 - - - - - - - - -
28/04:00am 17.3 S 11 14 1020.6 - - - - - - - - -
28/03:30am 17.6 S 10 13 1020.4 - - - - - - - - -
28/03:00am 17.4 S 10 13 1020.5 - - - - - - - - -
28/02:30am 17.4 S 10 13 1020.7 - - - - - - - - -
28/02:00am 17.6 S 12 13 1020.7 - - - - - - - - -
28/01:30am 18.1 S 8 12 1020.7 - - - - - - - - -
28/01:00am 19.0 SSE 9 11 1021.0 - - - - - - - - -
28/12:30am 19.2 SSE 8 11 1021.1 - - - - - - - - -
28/12:00am 17.5 W 2 5 1021.2 - - - - - - - - -
 
Date/Time
EST
Temp
°C
Wind Pressure Rain since
9am
mm
Weather Cloud Vis
km
Sea
Height
m
Swell
Dir  Spd
kts
Gust
kts
hPa Trend Height
m
Period
s
Dir
27/11:30pm 17.2 WNW 4 6 1020.9 - - - - - - - - -
27/11:00pm 17.9 WNW 5 6 1021.2 - - - - - - - - -
27/10:30pm 18.4 WNW 5 7 1020.9 - - - - - - - - -
27/10:00pm 17.8 NW 4 5 1020.9 - - - - - - - - -
27/09:30pm 20.5 E 6 9 1021.0 - - - - - - - - -
27/09:00pm 20.6 ESE 8 11 1020.9 - - - - - - - - -
27/08:30pm 20.5 E 8 10 1020.8 - - - - - - - - -
27/08:00pm 20.7 E 7 9 1020.6 - - - - - - - - -
27/07:30pm 20.6 E 7 9 1020.2 - - - - - - - - -
27/07:00pm 20.7 E 7 9 1019.8 - - - - - - - - -
27/06:30pm 20.5 ENE 8 10 1019.5 - - - - - - - - -
27/06:00pm 20.5 ENE 9 12 1019.2 - - - - - - - - -
27/05:30pm 20.4 ENE 9 11 1019.0 - - - - - - - - -
27/05:00pm 20.4 ENE 9 11 1018.9 - - - - - - - - -
27/04:30pm 20.4 ENE 10 13 1018.4 - - - - - - - - -
27/04:00pm 20.2 ENE 10 14 1018.3 - - - - - - - - -
27/03:30pm 20.2 ENE 11 13 1018.3 - - - - - - - - -
27/03:00pm 20.0 ENE 10 12 1018.4 - - - - - - - - -
27/02:30pm 20.0 ENE 10 12 1018.5 - - - - - - - - -
27/02:00pm 19.9 ENE 10 13 1018.8 - - - - - - - - -
27/01:30pm 19.8 ENE 10 12 1019.3 - - - - - - - - -
27/01:00pm 19.7 E 11 13 1019.8 - - - - - - - - -
27/12:30pm 20.1 ESE 9 12 1020.1 - - - - - - - - -
27/12:00pm 20.1 SE 10 12 1020.5 - - - - - - - - -
27/11:30am 19.8 SE 11 14 1021.0 - - - - - - - - -
27/11:00am 19.5 SE 12 15 1021.2 - - - - - - - - -
27/10:30am 19.0 SE 13 16 1021.7 - - - - - - - - -
27/10:00am 18.7 SSE 12 15 1021.7 - - - - - - - - -
27/09:30am 18.6 SSE 13 17 1021.6 - - - - - - - - -
27/09:00am 18.5 SSE 14 17 1021.6 - - - - - - - - -
27/08:30am 18.4 SSE 13 15 1021.4 - - - - - - - - -
27/08:00am 18.4 SSE 13 16 1021.3 - - - - - - - - -
27/07:30am 18.3 SSE 12 16 1020.9 - - - - - - - - -
27/07:00am 18.2 S 12 15 1020.5 - - - - - - - - -
27/06:30am 18.3 S 12 15 1020.4 - - - - - - - - -
27/06:00am 18.3 S 13 18 1019.7 - - - - - - - - -
27/05:30am 18.6 S 13 17 1019.3 - - - - - - - - -
27/05:00am 18.9 S 11 15 1018.8 - - - - - - - - -
27/04:30am 19.0 S 12 15 1018.7 - - - - - - - - -
27/04:00am 18.8 S 12 17 1018.7 - - - - - - - - -
27/03:30am 19.0 S 15 17 1018.5 - - - - - - - - -
27/03:00am 19.3 S 15 18 1018.7 - - - - - - - - -
27/02:30am 19.6 S 16 18 1018.3 - - - - - - - - -
27/02:00am 19.8 SSE 16 20 1018.5 - - - - - - - - -
27/01:30am 19.9 S 12 15 1018.6 - - - - - - - - -
27/01:00am 19.8 S 13 16 1018.7 - - - - - - - - -
27/12:30am 20.0 S 13 15 1018.6 - - - - - - - - -
27/12:00am 20.3 S 14 17 1018.6 - - - - - - - - -
 
Date/Time
EST
Temp
°C
Wind Pressure Rain since
9am
mm
Weather Cloud Vis
km
Sea
Height
m
Swell
Dir  Spd
kts
Gust
kts
hPa Trend Height
m
Period
s
Dir
26/11:30pm 20.3 SSE 12 15 1018.5 - - - - - - - - -
26/11:00pm 20.5 SSE 13 16 1018.5 - - - - - - - - -
26/10:30pm 21.3 S 12 16 1018.1 - - - - - - - - -
26/10:00pm 20.3 WSW 7 11 1017.9 - - - - - - - - -
26/09:30pm 21.2 SSW 8 9 1017.8 - - - - - - - - -
26/09:00pm 21.5 S 12 14 1017.7 - - - - - - - - -
26/08:30pm 21.6 S 11 14 1017.2 - - - - - - - - -
26/08:00pm 21.8 SSE 12 14 1016.9 - - - - - - - - -
26/07:30pm 22.2 S 9 13 1016.4 - - - - - - - - -
26/07:00pm 22.6 S 10 11 1015.7 - - - - - - - - -
26/06:30pm 22.9 SSW 11 13 1015.2 - - - - - - - - -
26/06:00pm 23.5 S 14 17 1014.7 - - - - - - - - -
26/05:30pm 24.0 S 14 17 1014.2 - - - - - - - - -
26/05:00pm 24.2 S 13 15 1014.0 - - - - - - - - -
26/04:30pm 24.5 SSW 7 12 1013.7 - - - - - - - - -
26/04:00pm 24.2 SSW 6 9 1013.5 - - - - - - - - -
26/03:30pm 24.0 S 10 13 1013.2 - - - - - - - - -
26/03:00pm 23.8 ESE 6 7 1013.2 - - - - - - - - -
26/02:30pm 23.5 ESE 7 9 1013.4 - - - - - - - - -
26/02:00pm 23.2 E 7 9 1013.6 - - - - - - - - -
26/01:30pm 23.2 SE 6 10 1013.9 - - - - - - - - -
26/01:00pm 22.9 SE 8 12 1014.4 - - - - - - - - -
26/12:30pm 22.4 SE 7 9 1014.8 - - - - - - - - -
26/12:00pm 22.1 SE 6 7 1015.1 - - - - - - - - -
26/11:30am 21.6 SE 5 7 1015.7 - - - - - - - - -
26/11:00am 21.2 SSE 3 6 1016.1 - - - - - - - - -
26/10:30am 20.6 S 3 5 1016.5 - - - - - - - - -
26/10:00am 20.5 SSW 5 7 1016.7 - - - - - - - - -
26/09:30am 20.3 SSW 3 7 1016.7 - - - - - - - - -
26/09:00am 19.9 WSW 5 7 1016.6 - - - - - - - - -
26/08:30am 19.6 W 6 7 1016.2 - - - - - - - - -
26/08:00am 19.3 W 6 7 1016.0 - - - - - - - - -
26/07:30am 19.0 W 8 11 1015.8 - - - - - - - - -
26/07:00am 19.5 SW 5 7 1015.5 - - - - - - - - -

Other Formats:

Comma delimited format used in spreadsheet applications
http://www.bom.gov.au/fwo/IDQ60701/IDQ60701.94297.axf

JavaScript Object Notation format (JSON) in row-major order
http://www.bom.gov.au/fwo/IDQ60701/IDQ60701.94297.json